createdAt,value
2017-12-26T00:00:37.650Z,82.98
2017-12-26T00:01:40.102Z,83.13
2017-12-26T00:02:42.564Z,82.98
2017-12-26T00:03:45.041Z,82.89
2017-12-26T00:04:47.504Z,83.13
2017-12-26T00:05:49.970Z,83.12
2017-12-26T00:06:52.429Z,83.14
2017-12-26T00:07:54.892Z,83.25
2017-12-26T00:08:57.369Z,83.29
2017-12-26T00:09:59.823Z,83.46
2017-12-26T00:11:02.289Z,83.44
2017-12-26T00:12:04.761Z,83.50
2017-12-26T00:13:07.221Z,83.48
2017-12-26T00:14:09.685Z,83.58
2017-12-26T00:15:12.137Z,83.52
2017-12-26T00:16:14.606Z,83.55
2017-12-26T00:17:17.069Z,83.62
2017-12-26T00:18:19.534Z,83.64
2017-12-26T00:19:21.979Z,83.68
2017-12-26T00:20:24.440Z,83.78
2017-12-26T00:21:26.992Z,83.87
2017-12-26T00:22:29.435Z,83.91
2017-12-26T00:23:31.905Z,83.84
2017-12-26T00:24:34.368Z,83.98
2017-12-26T00:25:36.810Z,84.07
2017-12-26T00:26:39.258Z,84.11
2017-12-26T00:27:41.720Z,84.17
2017-12-26T00:28:44.185Z,84.24
2017-12-26T00:29:46.630Z,84.08
2017-12-26T00:30:49.133Z,83.93
2017-12-26T00:31:51.554Z,83.87
2017-12-26T00:32:54.011Z,83.77
2017-12-26T00:33:56.488Z,83.81
2017-12-26T00:34:58.936Z,83.89
2017-12-26T00:36:01.397Z,83.98
2017-12-26T00:37:03.961Z,83.76
2017-12-26T00:38:06.425Z,83.76
2017-12-26T00:39:08.878Z,83.84
2017-12-26T00:40:11.332Z,83.81
2017-12-26T00:41:13.778Z,83.81
2017-12-26T00:42:16.243Z,83.86
2017-12-26T00:43:18.712Z,83.65
2017-12-26T00:44:21.156Z,83.71
2017-12-26T00:45:23.603Z,83.82
2017-12-26T00:46:26.065Z,83.72
2017-12-26T00:47:28.524Z,83.62
2017-12-26T00:48:31.004Z,83.63
2017-12-26T00:49:33.470Z,83.46
2017-12-26T00:50:35.930Z,83.34
2017-12-26T00:51:38.397Z,83.42
2017-12-26T00:52:40.845Z,83.37
2017-12-26T00:53:43.290Z,83.38
2017-12-26T00:54:45.768Z,83.47
2017-12-26T00:55:48.218Z,83.40
2017-12-26T00:56:50.710Z,83.22
2017-12-26T00:57:53.188Z,83.24
2017-12-26T00:58:55.653Z,83.02
2017-12-26T00:59:58.134Z,83.20
2017-12-26T01:01:00.583Z,83.24
2017-12-26T01:02:03.031Z,83.14
2017-12-26T01:03:05.474Z,83.19
2017-12-26T01:04:07.956Z,83.24
2017-12-26T01:05:10.427Z,83.34
2017-12-26T01:06:12.892Z,83.44
2017-12-26T01:07:15.342Z,83.50
2017-12-26T01:08:17.790Z,83.12
2017-12-26T01:09:20.343Z,83.15
2017-12-26T01:10:22.814Z,83.32
2017-12-26T01:11:25.258Z,83.14
2017-12-26T01:12:27.702Z,83.07
2017-12-26T01:13:30.155Z,83.26
2017-12-26T01:14:32.617Z,83.21
2017-12-26T01:15:35.104Z,83.31
2017-12-26T01:16:37.555Z,83.42
2017-12-26T01:17:40.021Z,83.25
2017-12-26T01:18:42.489Z,83.45
2017-12-26T01:19:44.948Z,83.44
2017-12-26T01:20:47.424Z,83.37
2017-12-26T01:21:49.885Z,83.32
2017-12-26T01:22:52.349Z,83.32
2017-12-26T01:23:54.812Z,83.42
2017-12-26T01:24:57.274Z,83.43
2017-12-26T01:25:59.743Z,83.23
2017-12-26T01:27:02.203Z,82.81
2017-12-26T01:28:04.664Z,82.85
2017-12-26T01:29:07.123Z,82.90
2017-12-26T01:30:09.601Z,82.98
2017-12-26T01:31:12.066Z,83.05
2017-12-26T01:32:14.533Z,83.19
2017-12-26T01:33:16.992Z,83.14
2017-12-26T01:34:19.438Z,83.11
2017-12-26T01:35:21.886Z,82.60
2017-12-26T01:36:24.368Z,82.60
2017-12-26T01:37:26.824Z,82.72
2017-12-26T01:38:29.292Z,82.56
2017-12-26T01:39:31.753Z,82.62
2017-12-26T01:40:34.202Z,82.68
2017-12-26T01:41:36.662Z,82.60
2017-12-26T01:42:39.113Z,82.51
2017-12-26T01:43:41.581Z,82.54
2017-12-26T01:44:44.034Z,82.59
2017-12-26T01:45:46.496Z,82.51
2017-12-26T01:46:49.017Z,82.20
2017-12-26T01:47:51.476Z,82.10
2017-12-26T01:48:53.940Z,82.22
2017-12-26T01:49:56.393Z,82.28
2017-12-26T01:50:58.847Z,82.22
2017-12-26T01:52:01.332Z,82.31
2017-12-26T01:53:03.780Z,82.31
2017-12-26T01:54:06.247Z,82.05
2017-12-26T01:55:08.690Z,81.75
2017-12-26T01:56:11.138Z,82.06
2017-12-26T01:57:13.621Z,82.06
2017-12-26T01:58:16.077Z,81.94
2017-12-26T01:59:18.522Z,81.47
2017-12-26T02:00:20.984Z,81.57
2017-12-26T02:01:23.449Z,81.71
2017-12-26T02:02:25.967Z,81.57
2017-12-26T02:03:29.236Z,81.40
2017-12-26T02:04:31.704Z,81.36
2017-12-26T02:05:34.173Z,81.57
2017-12-26T02:06:36.619Z,81.39
2017-12-26T02:07:39.091Z,81.49
2017-12-26T02:08:41.552Z,81.58
2017-12-26T02:09:44.007Z,81.67
2017-12-26T02:10:46.466Z,81.78
2017-12-26T02:11:48.930Z,81.64
2017-12-26T02:12:51.398Z,81.58
2017-12-26T02:13:53.841Z,81.67
2017-12-26T02:14:56.300Z,81.77
2017-12-26T02:15:58.742Z,81.77
2017-12-26T02:17:01.194Z,81.57
2017-12-26T02:18:03.669Z,81.54
2017-12-26T02:19:06.132Z,81.20
2017-12-26T02:20:08.596Z,81.19
2017-12-26T02:21:11.048Z,81.13
2017-12-26T02:22:13.490Z,81.32
2017-12-26T02:23:15.972Z,81.00
2017-12-26T02:24:18.422Z,81.00
2017-12-26T02:25:20.867Z,80.99
2017-12-26T02:26:23.327Z,80.86
2017-12-26T02:27:25.782Z,80.88
2017-12-26T02:28:28.250Z,80.87
2017-12-26T02:29:30.717Z,80.95
2017-12-26T02:30:33.205Z,81.06
2017-12-26T02:31:35.673Z,81.20
2017-12-26T02:32:38.130Z,81.13
2017-12-26T02:33:40.617Z,81.04
2017-12-26T02:34:43.081Z,81.32
2017-12-26T02:35:45.545Z,81.34
2017-12-26T02:36:48.002Z,81.18
2017-12-26T02:37:50.463Z,81.14
2017-12-26T02:38:52.943Z,81.29
2017-12-26T02:39:55.404Z,81.66
2017-12-26T02:40:57.852Z,81.61
2017-12-26T02:42:00.322Z,81.26
2017-12-26T02:43:02.774Z,81.28
2017-12-26T02:44:05.264Z,81.20
2017-12-26T02:45:07.717Z,81.08
2017-12-26T02:46:10.192Z,81.37
2017-12-26T02:47:12.639Z,81.37
2017-12-26T02:48:15.109Z,81.53
2017-12-26T02:49:17.574Z,81.46
2017-12-26T02:50:20.014Z,81.42
2017-12-26T02:51:22.488Z,81.68
2017-12-26T02:52:24.968Z,81.48
2017-12-26T02:53:27.432Z,81.21
2017-12-26T02:54:29.952Z,81.18
2017-12-26T02:55:32.406Z,80.99
2017-12-26T02:56:34.869Z,81.12
2017-12-26T02:57:37.336Z,81.20
2017-12-26T02:58:39.823Z,81.19
2017-12-26T02:59:42.293Z,81.11
2017-12-26T03:00:44.747Z,81.00
2017-12-26T03:01:47.190Z,80.88
2017-12-26T03:02:49.657Z,80.71
2017-12-26T03:03:52.122Z,80.69
2017-12-26T03:04:54.625Z,80.77
2017-12-26T03:05:57.082Z,80.70
2017-12-26T03:06:59.556Z,80.61
2017-12-26T03:08:02.025Z,80.39
2017-12-26T03:09:04.505Z,80.27
2017-12-26T03:10:06.992Z,80.12
2017-12-26T03:11:09.454Z,80.08
2017-12-26T03:12:11.920Z,80.25
2017-12-26T03:13:14.367Z,80.11
2017-12-26T03:14:16.815Z,80.08
2017-12-26T03:15:19.310Z,80.18
2017-12-26T03:16:21.762Z,80.20
2017-12-26T03:17:24.216Z,80.05
2017-12-26T03:18:26.682Z,80.19
2017-12-26T03:19:29.142Z,80.06
2017-12-26T03:20:31.614Z,80.19
2017-12-26T03:21:34.067Z,80.20
2017-12-26T03:22:36.517Z,79.89
2017-12-26T03:23:38.967Z,79.91
2017-12-26T03:24:41.428Z,80.10
2017-12-26T03:25:43.902Z,80.07
2017-12-26T03:26:46.363Z,79.90
2017-12-26T03:27:48.824Z,79.90
2017-12-26T03:28:51.297Z,80.05
2017-12-26T03:29:53.756Z,80.04
2017-12-26T03:30:56.245Z,80.01
2017-12-26T03:31:58.698Z,80.02
2017-12-26T03:33:01.168Z,79.90
2017-12-26T03:34:03.618Z,79.83
2017-12-26T03:35:06.067Z,79.69
2017-12-26T03:36:08.542Z,79.84
2017-12-26T03:37:11.001Z,79.77
2017-12-26T03:38:13.454Z,79.62
2017-12-26T03:39:15.906Z,79.63
2017-12-26T03:40:18.356Z,79.62
2017-12-26T03:41:20.844Z,79.77
2017-12-26T03:42:23.308Z,79.61
2017-12-26T03:43:25.750Z,79.38
2017-12-26T03:44:28.197Z,79.52
2017-12-26T03:45:30.657Z,79.20
2017-12-26T03:46:33.126Z,79.29
2017-12-26T03:47:35.592Z,79.16
2017-12-26T03:48:38.044Z,79.28
2017-12-26T03:49:40.504Z,79.32
2017-12-26T03:50:42.968Z,79.39
2017-12-26T03:51:45.448Z,79.39
2017-12-26T03:52:47.921Z,79.34
2017-12-26T03:53:50.366Z,79.27
2017-12-26T03:54:52.820Z,79.33
2017-12-26T03:55:55.292Z,79.46
2017-12-26T03:56:57.738Z,79.37
2017-12-26T03:58:00.195Z,79.17
2017-12-26T03:59:02.638Z,79.29
2017-12-26T04:00:05.112Z,79.07
2017-12-26T04:01:07.562Z,79.17
2017-12-26T04:02:10.044Z,79.17
2017-12-26T04:03:12.499Z,79.09
2017-12-26T04:04:14.964Z,79.10
2017-12-26T04:05:17.430Z,79.28
2017-12-26T04:06:19.878Z,79.35
2017-12-26T04:07:22.326Z,79.26
2017-12-26T04:08:24.783Z,79.08
2017-12-26T04:09:27.248Z,78.81
2017-12-26T04:10:29.704Z,79.07
2017-12-26T04:11:32.158Z,79.21
2017-12-26T04:12:34.615Z,79.00
2017-12-26T04:13:37.063Z,78.90
2017-12-26T04:14:39.514Z,78.81
2017-12-26T04:15:42.012Z,78.85
2017-12-26T04:16:44.460Z,78.77
2017-12-26T04:17:46.925Z,78.89
2017-12-26T04:18:49.393Z,78.92
2017-12-26T04:19:51.868Z,78.82
2017-12-26T04:20:54.317Z,78.99
2017-12-26T04:21:56.763Z,79.09
2017-12-26T04:22:59.297Z,78.85
2017-12-26T04:24:01.780Z,78.90
2017-12-26T04:25:04.234Z,78.88
2017-12-26T04:26:06.687Z,78.74
2017-12-26T04:27:09.153Z,78.60
2017-12-26T04:28:11.607Z,78.42
2017-12-26T04:29:14.073Z,78.41
2017-12-26T04:30:16.525Z,78.14
2017-12-26T04:31:18.975Z,77.91
2017-12-26T04:32:21.422Z,77.92
2017-12-26T04:33:23.869Z,78.07
2017-12-26T04:34:26.352Z,77.93
2017-12-26T04:35:28.806Z,77.65
2017-12-26T04:36:31.246Z,77.32
2017-12-26T04:37:33.721Z,77.20
2017-12-26T04:38:36.185Z,76.98
2017-12-26T04:39:38.635Z,76.92
2017-12-26T04:40:41.097Z,76.90
2017-12-26T04:41:43.660Z,76.77
2017-12-26T04:42:46.111Z,76.64
2017-12-26T04:43:48.556Z,76.31
2017-12-26T04:44:51.025Z,76.15
2017-12-26T04:45:53.475Z,76.20
2017-12-26T04:46:55.941Z,76.23
2017-12-26T04:47:58.395Z,76.17
2017-12-26T04:49:00.838Z,76.00
2017-12-26T04:50:03.377Z,75.61
2017-12-26T04:51:05.822Z,75.77
2017-12-26T04:52:08.266Z,75.61
2017-12-26T04:53:10.716Z,75.54
2017-12-26T04:54:13.168Z,75.23
2017-12-26T04:55:15.618Z,75.08
2017-12-26T04:56:18.066Z,75.01
2017-12-26T04:57:20.524Z,75.03
2017-12-26T04:58:22.969Z,74.91
2017-12-26T04:59:25.421Z,74.63
2017-12-26T05:00:27.886Z,74.25
2017-12-26T05:01:30.353Z,74.27
2017-12-26T05:02:32.815Z,74.64
2017-12-26T05:03:35.306Z,74.22
2017-12-26T05:04:37.768Z,73.67
2017-12-26T05:05:40.228Z,73.59
2017-12-26T05:06:42.678Z,73.67
2017-12-26T05:07:45.144Z,73.54
2017-12-26T05:08:47.630Z,73.29
2017-12-26T05:09:50.089Z,73.41
2017-12-26T05:10:52.548Z,73.24
2017-12-26T05:11:55.008Z,73.09
2017-12-26T05:12:57.472Z,73.09
2017-12-26T05:13:59.946Z,73.08
2017-12-26T05:15:02.395Z,73.13
2017-12-26T05:16:04.852Z,72.78
2017-12-26T05:17:07.301Z,72.49
2017-12-26T05:18:09.761Z,72.49
2017-12-26T05:19:12.233Z,72.40
2017-12-26T05:20:14.692Z,72.34
2017-12-26T05:21:17.153Z,72.32
2017-12-26T05:22:19.610Z,72.30
2017-12-26T05:23:22.073Z,72.26
2017-12-26T05:24:24.549Z,71.87
2017-12-26T05:25:27.020Z,71.70
2017-12-26T05:26:29.492Z,71.35
2017-12-26T05:27:31.961Z,71.31
2017-12-26T05:28:34.422Z,71.57
2017-12-26T05:29:36.894Z,71.71
2017-12-26T05:30:39.357Z,71.54
2017-12-26T05:31:41.822Z,71.57
2017-12-26T05:32:44.287Z,71.30
2017-12-26T05:33:46.730Z,71.15
2017-12-26T05:34:49.208Z,71.39
2017-12-26T05:35:51.651Z,71.09
2017-12-26T05:36:54.108Z,71.07
2017-12-26T05:37:56.568Z,71.20
2017-12-26T05:38:59.032Z,71.22
2017-12-26T05:40:01.516Z,71.17
2017-12-26T05:41:03.985Z,71.12
2017-12-26T05:42:06.434Z,70.93
2017-12-26T05:43:08.901Z,70.59
2017-12-26T05:44:11.354Z,70.86
2017-12-26T05:45:13.840Z,70.60
2017-12-26T05:46:16.306Z,70.69
2017-12-26T05:47:18.774Z,70.83
2017-12-26T05:48:21.240Z,70.92
2017-12-26T05:49:23.700Z,70.60
2017-12-26T05:50:26.188Z,70.22
2017-12-26T05:51:28.652Z,70.07
2017-12-26T05:52:31.116Z,70.11
2017-12-26T05:53:33.571Z,70.33
2017-12-26T05:54:36.019Z,70.31
2017-12-26T05:55:38.486Z,70.48
2017-12-26T05:56:40.940Z,70.28
2017-12-26T05:57:43.400Z,70.38
2017-12-26T05:58:45.886Z,70.25
2017-12-26T05:59:48.348Z,70.41
2017-12-26T06:00:50.802Z,70.37
2017-12-26T06:01:53.242Z,70.31
2017-12-26T06:02:55.683Z,70.16
2017-12-26T06:03:58.130Z,70.30
2017-12-26T06:05:00.574Z,70.16
2017-12-26T06:06:03.019Z,70.23
2017-12-26T06:07:05.484Z,70.34
2017-12-26T06:08:07.945Z,70.05
2017-12-26T06:09:10.412Z,70.22
2017-12-26T06:10:12.854Z,70.01
2017-12-26T06:11:15.302Z,70.49
2017-12-26T06:12:17.742Z,70.33
2017-12-26T06:13:20.193Z,70.14
2017-12-26T06:14:22.660Z,70.30
2017-12-26T06:15:25.179Z,70.29
2017-12-26T06:16:27.656Z,70.03
2017-12-26T06:17:30.125Z,70.08
2017-12-26T06:18:32.575Z,70.42
2017-12-26T06:19:35.048Z,70.93
2017-12-26T06:20:37.508Z,71.00
2017-12-26T06:21:40.098Z,70.87
2017-12-26T06:22:42.616Z,71.07
2017-12-26T06:23:45.213Z,71.41
2017-12-26T06:24:47.764Z,71.64
2017-12-26T06:25:50.278Z,71.60
2017-12-26T06:26:52.780Z,71.83
2017-12-26T06:27:55.290Z,72.37
2017-12-26T06:28:57.870Z,72.30
2017-12-26T06:30:00.424Z,72.75
2017-12-26T06:31:02.946Z,72.90
2017-12-26T06:32:05.484Z,72.90
2017-12-26T06:33:08.012Z,72.89
2017-12-26T06:34:10.609Z,73.23
2017-12-26T06:35:13.397Z,73.11
2017-12-26T06:36:15.904Z,73.23
2017-12-26T06:37:18.471Z,73.74
2017-12-26T06:38:21.128Z,73.67
2017-12-26T06:39:23.753Z,73.37
2017-12-26T06:40:26.257Z,72.99
2017-12-26T06:41:28.720Z,73.39
2017-12-26T06:42:31.260Z,73.63
2017-12-26T06:43:33.810Z,73.84
2017-12-26T06:44:36.352Z,73.58
2017-12-26T06:45:39.031Z,73.17
2017-12-26T06:46:42.474Z,73.80
2017-12-26T06:47:45.076Z,74.09
2017-12-26T06:48:48.136Z,73.87
2017-12-26T06:49:50.718Z,73.91
2017-12-26T06:50:53.329Z,74.17
2017-12-26T06:51:55.840Z,74.09
2017-12-26T06:52:58.553Z,74.44
2017-12-26T06:54:01.191Z,74.08
2017-12-26T06:55:03.870Z,74.30
2017-12-26T06:56:06.406Z,74.68
2017-12-26T06:57:09.055Z,74.64
2017-12-26T06:58:11.580Z,75.06
2017-12-26T06:59:14.116Z,75.37
2017-12-26T07:00:16.636Z,75.53
2017-12-26T07:01:19.113Z,76.16
2017-12-26T07:02:21.725Z,76.58
2017-12-26T07:03:24.545Z,76.99
2017-12-26T07:04:27.192Z,76.58
2017-12-26T07:05:29.784Z,77.04
2017-12-26T07:06:32.420Z,76.38
2017-12-26T07:07:34.982Z,76.79
2017-12-26T07:08:37.585Z,77.60
2017-12-26T07:09:40.196Z,77.85
2017-12-26T07:10:42.774Z,77.77
2017-12-26T07:11:45.485Z,77.43
2017-12-26T07:12:48.053Z,77.59
2017-12-26T07:13:50.643Z,77.70
2017-12-26T07:14:53.162Z,78.06
2017-12-26T07:15:55.742Z,78.38
2017-12-26T07:16:58.408Z,78.42
2017-12-26T07:18:00.961Z,78.54
2017-12-26T07:19:03.464Z,78.93
2017-12-26T07:21:58.893Z,79.07
2017-12-26T07:23:01.371Z,79.18
2017-12-26T07:24:03.890Z,79.77
2017-12-26T07:25:06.398Z,79.75
2017-12-26T07:26:08.862Z,79.27
2017-12-26T07:27:11.516Z,79.45
2017-12-26T07:28:14.217Z,80.01
2017-12-26T07:29:17.118Z,80.13
2017-12-26T07:30:19.754Z,79.64
2017-12-26T07:31:22.482Z,79.92
2017-12-26T07:32:24.992Z,79.69
2017-12-26T07:33:27.516Z,80.39
2017-12-26T07:34:30.010Z,81.24
2017-12-26T07:35:32.551Z,80.52
2017-12-26T07:36:35.063Z,80.74
2017-12-26T07:37:37.552Z,80.68
2017-12-26T07:38:40.091Z,81.03
2017-12-26T07:39:42.595Z,80.97
2017-12-26T07:40:45.140Z,80.99
2017-12-26T07:41:48.891Z,81.19
2017-12-26T07:42:51.377Z,81.52
2017-12-26T07:43:53.859Z,81.86
2017-12-26T07:44:56.438Z,81.93
2017-12-26T07:45:59.195Z,82.34
2017-12-26T07:47:01.697Z,81.83
2017-12-26T07:48:04.178Z,82.32
2017-12-26T07:49:06.645Z,82.92
2017-12-26T07:50:09.225Z,82.40
2017-12-26T07:51:11.746Z,82.78
2017-12-26T07:52:14.243Z,82.10
2017-12-26T07:53:16.705Z,82.65
2017-12-26T07:54:19.163Z,82.90
2017-12-26T07:55:21.669Z,83.26
2017-12-26T07:56:24.145Z,83.29
2017-12-26T07:57:26.603Z,83.40
2017-12-26T07:58:29.212Z,83.57
2017-12-26T07:59:31.870Z,83.85
2017-12-26T08:00:34.742Z,84.08
2017-12-26T08:01:37.307Z,84.48
2017-12-26T08:02:39.964Z,84.24
2017-12-26T08:03:42.461Z,84.52
2017-12-26T08:04:44.944Z,83.93
2017-12-26T08:05:47.441Z,84.50
2017-12-26T08:06:49.921Z,84.49
2017-12-26T08:07:52.425Z,84.79
2017-12-26T08:08:55.015Z,85.11
2017-12-26T08:09:57.515Z,84.96
2017-12-26T08:11:00.036Z,85.27
2017-12-26T08:12:02.539Z,85.32
2017-12-26T08:13:06.032Z,85.43
2017-12-26T08:14:08.572Z,85.73
2017-12-26T08:15:11.045Z,85.77
2017-12-26T08:16:13.712Z,85.32
2017-12-26T08:17:16.589Z,85.52
2017-12-26T08:18:19.111Z,85.44
2017-12-26T08:19:21.610Z,85.50
2017-12-26T08:20:24.454Z,85.90
2017-12-26T08:21:27.192Z,85.94
2017-12-26T08:22:29.833Z,86.17
2017-12-26T08:23:32.417Z,86.09
2017-12-26T08:24:34.875Z,86.50
2017-12-26T08:25:37.618Z,86.04
2017-12-26T08:26:40.201Z,86.04
2017-12-26T08:27:42.955Z,86.08
2017-12-26T08:28:45.683Z,86.23
2017-12-26T08:29:48.213Z,86.14
2017-12-26T08:30:50.954Z,86.30
2017-12-26T08:31:53.732Z,86.64
2017-12-26T08:32:56.724Z,86.86
2017-12-26T08:33:59.241Z,86.88
2017-12-26T08:35:01.956Z,87.18
2017-12-26T08:36:04.613Z,87.28
2017-12-26T08:37:07.100Z,87.14
2017-12-26T08:38:09.957Z,87.33
2017-12-26T08:39:12.483Z,87.53
2017-12-26T08:40:15.013Z,87.85
2017-12-26T08:41:17.589Z,87.92
2017-12-26T08:42:20.104Z,87.87
2017-12-26T08:43:24.707Z,87.83
2017-12-26T08:44:27.234Z,87.76
2017-12-26T08:45:29.757Z,87.76
2017-12-26T08:46:32.251Z,88.08
2017-12-26T08:47:34.811Z,87.93
2017-12-26T08:48:37.399Z,87.88
2017-12-26T08:49:40.184Z,87.68
2017-12-26T08:50:42.701Z,87.74
2017-12-26T08:51:45.201Z,87.22
2017-12-26T08:52:47.678Z,87.60
2017-12-26T08:53:50.284Z,87.47
2017-12-26T08:54:52.976Z,87.82
2017-12-26T08:55:55.555Z,87.80
2017-12-26T08:56:58.043Z,87.94
2017-12-26T08:58:00.536Z,88.01
2017-12-26T08:59:03.152Z,87.66
2017-12-26T09:00:05.716Z,87.62
2017-12-26T09:01:08.193Z,86.58
2017-12-26T09:02:10.713Z,87.00
2017-12-26T09:03:13.163Z,87.02
2017-12-26T09:04:15.639Z,86.92
2017-12-26T09:05:18.160Z,87.02
2017-12-26T09:06:20.638Z,86.80
2017-12-26T09:07:23.218Z,86.52
2017-12-26T09:08:25.726Z,86.73
2017-12-26T09:09:28.263Z,86.55
2017-12-26T09:10:30.913Z,86.84
2017-12-26T09:11:33.428Z,87.03
2017-12-26T09:12:36.450Z,86.55
2017-12-26T09:13:38.997Z,86.96
2017-12-26T09:14:41.501Z,86.76
2017-12-26T09:15:44.288Z,86.91
2017-12-26T09:16:46.813Z,86.68
2017-12-26T09:17:49.313Z,86.55
2017-12-26T09:18:52.100Z,86.92
2017-12-26T09:19:54.685Z,86.31
2017-12-26T09:20:57.249Z,85.83
2017-12-26T09:21:59.749Z,86.21
2017-12-26T09:23:02.218Z,86.01
2017-12-26T09:24:04.773Z,85.77
2017-12-26T09:25:07.268Z,85.25
2017-12-26T09:26:09.735Z,85.05
2017-12-26T09:27:12.277Z,85.34
2017-12-26T09:28:14.753Z,84.97
2017-12-26T09:29:17.525Z,84.35
2017-12-26T09:30:20.164Z,84.42
2017-12-26T09:31:22.703Z,83.23
2017-12-26T09:32:25.434Z,83.72
2017-12-26T09:33:27.896Z,83.99
2017-12-26T09:34:30.566Z,84.09
2017-12-26T09:35:33.080Z,84.19
2017-12-26T09:36:36.428Z,83.98
2017-12-26T09:37:38.895Z,83.83
2017-12-26T09:38:41.453Z,84.71
2017-12-26T09:39:44.309Z,84.87
2017-12-26T09:40:46.900Z,85.33
2017-12-26T09:41:49.377Z,85.66
2017-12-26T09:42:51.870Z,85.25
2017-12-26T09:43:54.397Z,85.71
2017-12-26T09:44:56.890Z,85.65
2017-12-26T09:45:59.479Z,85.73
2017-12-26T09:47:01.988Z,86.05
2017-12-26T09:48:04.580Z,85.45
2017-12-26T09:49:07.090Z,85.58
2017-12-26T09:50:09.741Z,84.76
2017-12-26T09:51:12.215Z,84.92
2017-12-26T09:52:15.143Z,84.38
2017-12-26T09:53:18.015Z,84.63
2017-12-26T09:54:20.633Z,84.84
2017-12-26T09:55:23.171Z,84.91
2017-12-26T09:56:25.645Z,85.08
2017-12-26T09:57:28.134Z,85.34
2017-12-26T09:58:30.583Z,85.13
2017-12-26T09:59:33.030Z,85.33
2017-12-26T10:00:35.490Z,85.28
2017-12-26T10:01:38.053Z,85.77
2017-12-26T10:02:40.576Z,85.89
2017-12-26T10:03:43.052Z,85.65
2017-12-26T10:04:45.529Z,85.35
2017-12-26T10:05:47.990Z,85.23
2017-12-26T10:06:50.733Z,85.10
2017-12-26T10:07:53.213Z,85.27
2017-12-26T10:08:55.723Z,84.63
2017-12-26T10:09:58.171Z,84.74
2017-12-26T10:11:00.693Z,84.05
2017-12-26T10:12:03.247Z,84.47
2017-12-26T10:13:05.743Z,84.74
2017-12-26T10:14:08.265Z,84.76
2017-12-26T10:15:10.718Z,84.96
2017-12-26T10:16:13.228Z,85.30
2017-12-26T10:17:15.708Z,85.43
2017-12-26T10:18:18.271Z,85.26
2017-12-26T10:19:20.726Z,84.80
2017-12-26T10:20:23.243Z,85.04
2017-12-26T10:21:25.698Z,85.45
2017-12-26T10:22:28.372Z,85.23
2017-12-26T10:23:30.889Z,85.18
2017-12-26T10:24:33.352Z,85.05
2017-12-26T10:25:35.850Z,84.57
2017-12-26T10:26:38.294Z,84.52
2017-12-26T10:27:40.769Z,85.18
2017-12-26T10:28:43.428Z,84.88
2017-12-26T10:29:45.918Z,84.72
2017-12-26T10:30:48.437Z,84.76
2017-12-26T10:31:50.886Z,84.58
2017-12-26T10:32:53.781Z,84.16
2017-12-26T10:33:56.228Z,83.92
2017-12-26T10:34:58.894Z,83.96
2017-12-26T10:36:01.857Z,83.44
2017-12-26T10:37:04.319Z,82.52
2017-12-26T10:38:06.812Z,83.18
2017-12-26T10:39:09.420Z,83.04
2017-12-26T10:40:12.257Z,82.50
2017-12-26T10:41:15.015Z,82.87
2017-12-26T10:42:17.639Z,81.87
2017-12-26T10:43:20.256Z,81.94
2017-12-26T10:44:22.822Z,82.01
2017-12-26T10:45:25.398Z,81.88
2017-12-26T10:46:28.021Z,80.91
2017-12-26T10:47:30.515Z,81.02
2017-12-26T10:48:33.352Z,80.38
2017-12-26T10:49:35.872Z,80.23
2017-12-26T10:50:38.346Z,80.59
2017-12-26T10:51:40.841Z,80.34
2017-12-26T10:52:43.317Z,80.33
2017-12-26T10:53:46.568Z,79.81
2017-12-26T10:54:49.467Z,80.18
2017-12-26T10:55:52.080Z,79.87
2017-12-26T10:56:54.739Z,80.48
2017-12-26T10:57:57.451Z,81.15
2017-12-26T10:59:00.251Z,80.97
2017-12-26T11:00:02.869Z,80.67
2017-12-26T11:01:05.425Z,80.44
2017-12-26T11:02:08.025Z,80.92
2017-12-26T11:03:10.593Z,81.15
2017-12-26T11:04:13.369Z,80.80
2017-12-26T11:05:15.847Z,80.64
2017-12-26T11:06:18.559Z,81.22
2017-12-26T11:07:21.304Z,80.33
2017-12-26T11:08:23.827Z,80.78
2017-12-26T11:09:26.342Z,80.32
2017-12-26T11:10:28.822Z,80.19
2017-12-26T11:11:31.311Z,80.52
2017-12-26T11:12:33.800Z,80.64
2017-12-26T11:13:36.385Z,80.17
2017-12-26T11:14:38.893Z,80.60
2017-12-26T11:15:41.459Z,80.24
2017-12-26T11:16:44.060Z,80.20
2017-12-26T11:17:46.631Z,79.87
2017-12-26T11:18:49.164Z,79.34
2017-12-26T11:19:51.620Z,78.98
2017-12-26T11:20:54.273Z,78.95
2017-12-26T11:21:56.880Z,80.03
2017-12-26T11:23:00.079Z,80.37
2017-12-26T11:24:03.126Z,79.65
2017-12-26T11:25:05.655Z,80.38
2017-12-26T11:26:08.209Z,80.59
2017-12-26T11:27:10.747Z,80.38
2017-12-26T11:28:13.474Z,79.99
2017-12-26T11:29:15.981Z,80.16
2017-12-26T11:30:18.586Z,79.30
2017-12-26T11:31:21.206Z,79.16
2017-12-26T11:32:23.829Z,77.91
2017-12-26T11:33:26.408Z,78.79
2017-12-26T11:34:29.030Z,79.32
2017-12-26T11:35:31.555Z,79.19
2017-12-26T11:36:34.351Z,78.56
2017-12-26T11:37:36.926Z,78.84
2017-12-26T11:38:39.576Z,78.84
2017-12-26T11:39:42.227Z,79.54
2017-12-26T11:40:44.714Z,79.77
2017-12-26T11:41:47.381Z,80.04
2017-12-26T11:42:49.940Z,79.44
2017-12-26T11:43:52.446Z,79.59
2017-12-26T11:44:55.100Z,80.09
2017-12-26T11:45:57.823Z,80.14
2017-12-26T11:47:00.357Z,79.44
2017-12-26T11:48:02.919Z,79.18
2017-12-26T11:49:05.471Z,79.03
2017-12-26T11:50:08.200Z,78.75
2017-12-26T11:51:10.701Z,79.25
2017-12-26T11:52:13.252Z,79.11
2017-12-26T11:53:15.960Z,77.86
2017-12-26T11:54:19.032Z,78.48
2017-12-26T11:55:21.690Z,78.50
2017-12-26T11:56:24.239Z,78.04
2017-12-26T11:57:26.736Z,78.49
2017-12-26T11:58:29.261Z,78.18
2017-12-26T11:59:31.863Z,78.82
2017-12-26T12:00:36.185Z,78.51
2017-12-26T12:01:38.756Z,78.45
2017-12-26T12:02:41.250Z,78.70
2017-12-26T12:03:43.993Z,78.05
2017-12-26T12:04:46.577Z,78.47
2017-12-26T12:05:49.131Z,78.49
2017-12-26T12:06:51.684Z,78.68
2017-12-26T12:07:54.354Z,78.78
2017-12-26T12:08:57.692Z,78.45
2017-12-26T12:10:02.752Z,77.78
2017-12-26T12:11:05.426Z,78.27
2017-12-26T12:12:07.951Z,78.70
2017-12-26T12:13:10.556Z,77.26
2017-12-26T12:14:13.155Z,77.67
2017-12-26T12:15:15.704Z,77.59
2017-12-26T12:16:18.187Z,77.54
2017-12-26T12:17:20.704Z,77.53
2017-12-26T12:18:23.352Z,77.58
2017-12-26T12:19:26.024Z,76.71
2017-12-26T12:20:28.845Z,75.44
2017-12-26T12:21:31.397Z,74.87
2017-12-26T12:22:34.017Z,74.60
2017-12-26T12:23:36.800Z,74.20
2017-12-26T12:24:39.308Z,74.66
2017-12-26T12:25:41.906Z,73.84
2017-12-26T12:26:44.376Z,73.90
2017-12-26T12:27:46.900Z,73.78
2017-12-26T12:28:49.355Z,73.89
2017-12-26T12:29:52.049Z,73.66
2017-12-26T12:30:54.869Z,71.83
2017-12-26T12:31:58.913Z,71.91
2017-12-26T12:33:02.487Z,71.76
2017-12-26T12:34:05.001Z,71.20
2017-12-26T12:35:07.510Z,72.10
2017-12-26T12:36:10.146Z,72.21
2017-12-26T12:37:12.876Z,72.79
2017-12-26T12:38:15.879Z,72.89
2017-12-26T12:39:18.526Z,72.72
2017-12-26T12:40:21.429Z,73.09
2017-12-26T12:41:26.728Z,73.14
2017-12-26T12:42:29.201Z,71.79
2017-12-26T12:43:31.837Z,71.59
2017-12-26T12:44:34.562Z,72.25
2017-12-26T12:45:37.219Z,71.89
2017-12-26T12:46:39.719Z,71.65
2017-12-26T12:47:44.473Z,71.45
2017-12-26T12:48:47.846Z,71.52
2017-12-26T12:49:50.429Z,71.45
2017-12-26T12:50:52.913Z,71.40
2017-12-26T12:51:55.384Z,71.55
2017-12-26T12:52:57.922Z,71.03
2017-12-26T12:54:00.562Z,71.75
2017-12-26T12:55:03.224Z,71.65
2017-12-26T12:56:05.795Z,71.75
2017-12-26T12:57:08.355Z,71.70
2017-12-26T12:58:10.936Z,72.08
2017-12-26T12:59:13.720Z,72.24
2017-12-26T13:00:16.351Z,72.13
2017-12-26T13:01:18.931Z,72.18
2017-12-26T13:02:21.517Z,72.63
2017-12-26T13:03:24.350Z,72.40
2017-12-26T13:04:27.052Z,72.13
2017-12-26T13:05:29.603Z,72.56
2017-12-26T13:06:32.157Z,72.63
2017-12-26T13:07:34.910Z,72.55
2017-12-26T13:08:37.456Z,72.26
2017-12-26T13:09:40.092Z,71.64
2017-12-26T13:10:42.785Z,72.09
2017-12-26T13:11:45.480Z,72.19
2017-12-26T13:12:48.010Z,72.35
2017-12-26T13:13:50.855Z,72.18
2017-12-26T13:14:53.401Z,72.15
2017-12-26T13:15:55.864Z,72.17
2017-12-26T13:17:01.239Z,71.70
2017-12-26T13:18:03.812Z,72.38
2017-12-26T13:19:06.308Z,71.90
2017-12-26T13:20:09.009Z,71.93
2017-12-26T13:21:11.605Z,71.94
2017-12-26T13:22:14.313Z,71.90
2017-12-26T13:23:16.936Z,71.77
2017-12-26T13:24:19.412Z,71.58
2017-12-26T13:25:22.153Z,70.95
2017-12-26T13:26:24.723Z,71.57
2017-12-26T13:27:27.326Z,71.68